createdAt,value
2022-10-04T00:11:51.943Z,5.88
2022-10-04T00:26:00.425Z,5.84
2022-10-04T00:40:13.017Z,5.76
2022-10-04T00:54:27.489Z,5.7
2022-10-04T01:08:35.676Z,5.63
2022-10-04T01:22:48.482Z,5.59
2022-10-04T01:37:00.844Z,5.6
2022-10-04T01:51:13.332Z,5.47
2022-10-04T02:05:26.057Z,5.46
2022-10-04T02:19:38.230Z,5.51
2022-10-04T02:33:51.404Z,5.34
2022-10-04T02:48:00.526Z,5.14
2022-10-04T03:02:13.051Z,5.05
2022-10-04T03:16:23.198Z,5.16
2022-10-04T03:30:35.289Z,5.21
2022-10-04T03:44:47.775Z,5.31
2022-10-04T03:59:00.444Z,5.4
2022-10-04T04:13:12.141Z,5.29
2022-10-04T04:27:28.399Z,5.23
2022-10-04T04:56:03.181Z,5.3
2022-10-04T05:10:00.575Z,5.45
2022-10-04T05:24:13.082Z,5.53
2022-10-04T05:38:25.446Z,5.75
2022-10-04T05:52:38.129Z,5.88
2022-10-04T06:06:50.067Z,6.02
2022-10-04T06:21:01.513Z,6.19
2022-10-04T06:35:14.940Z,6.47
2022-10-04T06:49:27.985Z,6.68
2022-10-04T06:54:25.631Z,6.71
2022-10-04T07:03:41.232Z,6.76
2022-10-04T07:03:59.403Z,6.87
2022-10-04T07:13:33.495Z,6.99
2022-10-04T07:17:55.024Z,7.08
2022-10-04T07:23:07.986Z,7.33
2022-10-04T07:32:41.291Z,7.43
2022-10-04T07:42:15.541Z,7.57
2022-10-04T07:51:49.451Z,7.83
2022-10-04T08:01:23.715Z,8.17
2022-10-04T08:02:30.270Z,8.23
2022-10-04T08:12:00.059Z,8.41
2022-10-04T08:13:04.156Z,8.46
2022-10-04T08:22:35.739Z,8.65
2022-10-04T08:23:38.287Z,8.66
2022-10-04T08:24:42.349Z,8.71
2022-10-04T08:34:13.416Z,8.81
2022-10-04T08:35:17.511Z,8.85
2022-10-04T08:36:21.457Z,8.89
2022-10-04T08:37:23.774Z,8.95
2022-10-04T08:38:27.803Z,9.01
2022-10-04T08:39:31.732Z,9.06
2022-10-04T08:40:34.129Z,9.11
2022-10-04T08:41:36.544Z,9.16
2022-10-04T08:42:40.611Z,9.18
2022-10-04T08:43:43.033Z,9.21
2022-10-04T08:53:14.966Z,9.34
2022-10-04T08:54:17.444Z,9.38
2022-10-04T08:55:19.893Z,9.45
2022-10-04T08:56:22.299Z,9.50
2022-10-04T08:57:26.363Z,9.57
2022-10-04T08:58:28.668Z,9.63
2022-10-04T08:59:31.025Z,9.69
2022-10-04T09:00:33.498Z,9.75
2022-10-04T09:01:37.630Z,9.82
2022-10-04T09:02:41.497Z,9.89
2022-10-04T09:03:45.434Z,9.95
2022-10-04T09:04:47.779Z,10.01
2022-10-04T09:05:51.870Z,10.08
2022-10-04T09:06:54.137Z,10.14
2022-10-04T09:07:56.585Z,10.16
2022-10-04T09:08:59.049Z,10.20
2022-10-04T09:10:03.064Z,10.24
2022-10-04T09:11:05.401Z,10.27
2022-10-04T09:12:07.862Z,10.31
2022-10-04T09:13:11.960Z,10.34
2022-10-04T09:14:15.982Z,10.38
2022-10-04T09:15:18.316Z,10.42
2022-10-04T09:16:20.821Z,10.45
2022-10-04T09:17:24.781Z,10.47
2022-10-04T09:18:28.676Z,10.53
2022-10-04T09:19:31.072Z,10.56
2022-10-04T09:20:40.880Z,10.59
2022-10-04T09:21:36.029Z,10.62
2022-10-04T09:22:38.484Z,10.64
2022-10-04T09:23:40.904Z,10.67
2022-10-04T09:33:13.734Z,10.73
2022-10-04T09:34:16.172Z,10.77
2022-10-04T09:35:20.231Z,10.82
2022-10-04T09:36:22.525Z,10.91
2022-10-04T09:37:24.951Z,10.98
2022-10-04T09:38:28.991Z,11.04
2022-10-04T09:39:32.899Z,11.10
2022-10-04T09:40:36.760Z,11.14
2022-10-04T09:41:40.743Z,11.19
2022-10-04T09:42:43.019Z,11.22
2022-10-04T09:43:47.025Z,11.23
2022-10-04T09:44:51.118Z,11.27
2022-10-04T09:45:53.512Z,11.31
2022-10-04T09:46:56.755Z,11.34
2022-10-04T09:47:58.306Z,11.39
2022-10-04T09:49:00.753Z,11.43
2022-10-04T09:50:04.835Z,11.47
2022-10-04T09:51:08.749Z,11.51
2022-10-04T09:52:12.103Z,11.56
2022-10-04T09:53:16.132Z,11.62
2022-10-04T09:54:20.148Z,11.63
2022-10-04T09:55:22.336Z,11.64
2022-10-04T09:56:24.730Z,11.65
2022-10-04T09:58:29.612Z,11.62
2022-10-04T10:01:37.978Z,11.64
2022-10-04T10:02:40.428Z,11.66
2022-10-04T10:03:44.297Z,11.67
2022-10-04T10:04:46.636Z,11.69
2022-10-04T10:05:49.089Z,11.70
2022-10-04T10:06:51.552Z,11.71
2022-10-04T10:07:55.586Z,11.74
2022-10-04T10:08:57.895Z,11.76
2022-10-04T10:10:00.334Z,11.78
2022-10-04T10:11:04.335Z,11.80
2022-10-04T10:12:06.682Z,11.78
2022-10-04T10:21:38.895Z,11.60
2022-10-04T10:22:41.399Z,11.61
2022-10-04T10:23:45.465Z,11.63
2022-10-04T10:24:49.415Z,11.65
2022-10-04T10:25:51.695Z,11.69
2022-10-04T10:26:54.168Z,11.74
2022-10-04T10:27:56.788Z,11.77
2022-10-04T10:29:00.749Z,11.79
2022-10-04T10:30:03.126Z,11.84
2022-10-04T10:31:05.550Z,11.90
2022-10-04T10:32:08.043Z,11.94
2022-10-04T10:33:12.052Z,11.98
2022-10-04T10:34:15.977Z,12.03
2022-10-04T10:35:18.311Z,12.09
2022-10-04T10:36:20.759Z,12.15
2022-10-04T10:37:23.197Z,12.20
2022-10-04T10:38:25.600Z,12.26
2022-10-04T10:39:28.077Z,12.33
2022-10-04T10:40:30.518Z,12.38
2022-10-04T10:41:32.970Z,12.39
2022-10-04T10:42:35.607Z,12.42
2022-10-04T10:43:38.406Z,12.45
2022-10-04T10:44:46.163Z,12.50
2022-10-04T10:45:48.283Z,12.56
2022-10-04T10:46:52.410Z,12.60
2022-10-04T10:47:54.686Z,12.64
2022-10-04T10:48:57.126Z,12.68
2022-10-04T10:49:59.553Z,12.71
2022-10-04T10:51:01.987Z,12.74
2022-10-04T10:52:04.444Z,12.76
2022-10-04T10:53:06.862Z,12.77
2022-10-04T10:54:09.320Z,12.80
2022-10-04T10:55:11.705Z,12.83
2022-10-04T10:57:16.722Z,12.85
2022-10-04T10:58:19.232Z,12.87
2022-10-04T10:59:21.579Z,12.89
2022-10-04T11:00:23.979Z,12.91
2022-10-04T11:01:26.507Z,12.95
2022-10-04T11:02:47.987Z,12.97
2022-10-04T11:03:32.429Z,12.98
2022-10-04T11:04:35.287Z,13.01
2022-10-04T11:05:37.596Z,13.04
2022-10-04T11:06:41.707Z,13.07
2022-10-04T11:07:43.975Z,13.10
2022-10-04T11:08:46.376Z,13.14
2022-10-04T11:09:48.807Z,13.18
2022-10-04T11:10:51.986Z,13.19
2022-10-04T11:11:55.305Z,13.24
2022-10-04T11:12:59.274Z,13.28
2022-10-04T11:14:03.223Z,13.32
2022-10-04T11:15:05.517Z,13.36
2022-10-04T11:16:08.116Z,13.41
2022-10-04T11:17:10.447Z,13.44
2022-10-04T11:18:12.819Z,13.49
2022-10-04T11:19:15.207Z,13.51
2022-10-04T11:20:18.685Z,13.56
2022-10-04T11:21:22.676Z,13.61
2022-10-04T11:22:26.577Z,13.65
2022-10-04T11:23:28.966Z,13.64
2022-10-04T11:24:32.848Z,13.66
2022-10-04T11:25:35.217Z,13.70
2022-10-04T11:26:37.565Z,13.77
2022-10-04T11:27:40.075Z,13.81
2022-10-04T11:28:42.638Z,13.82
2022-10-04T11:29:44.867Z,13.83
2022-10-04T11:30:47.443Z,13.86
2022-10-04T11:31:49.857Z,13.90
2022-10-04T11:32:52.392Z,13.95
2022-10-04T11:33:54.801Z,13.99
2022-10-04T11:34:58.877Z,14.03
2022-10-04T11:36:01.269Z,14.06
2022-10-04T11:37:03.715Z,14.08
2022-10-04T11:38:11.753Z,14.11
2022-10-04T11:39:13.886Z,14.20
2022-10-04T11:40:16.317Z,14.22
2022-10-04T11:41:18.832Z,14.27
2022-10-04T11:42:22.855Z,14.31
2022-10-04T11:43:25.136Z,14.36
2022-10-04T11:44:29.194Z,14.41
2022-10-04T11:45:33.214Z,14.43
2022-10-04T11:46:35.570Z,14.47
2022-10-04T11:47:37.978Z,14.52
2022-10-04T11:48:40.450Z,14.55
2022-10-04T11:49:42.903Z,14.59
2022-10-04T11:50:45.334Z,14.64
2022-10-04T11:51:47.885Z,14.68
2022-10-04T11:52:51.828Z,14.71
2022-10-04T11:53:54.110Z,14.78
2022-10-04T11:54:56.613Z,14.79
2022-10-04T11:56:00.696Z,14.83
2022-10-04T11:57:03.091Z,14.88
2022-10-04T11:58:08.512Z,14.89
2022-10-04T11:59:07.800Z,14.95
2022-10-04T12:00:11.946Z,15.00
2022-10-04T12:01:15.944Z,15.06
2022-10-04T12:02:18.311Z,15.12
2022-10-04T12:03:20.779Z,15.16
2022-10-04T12:04:24.850Z,15.19
2022-10-04T12:05:28.757Z,15.23
2022-10-04T12:06:31.033Z,15.29
2022-10-04T12:07:33.556Z,15.33
2022-10-04T12:08:35.846Z,15.38
2022-10-04T12:09:38.357Z,15.43
2022-10-04T12:10:40.820Z,15.48
2022-10-04T12:11:43.155Z,15.51
2022-10-04T12:12:47.188Z,15.56
2022-10-04T12:13:49.778Z,15.62
2022-10-04T12:14:53.696Z,15.65
2022-10-04T12:15:56.085Z,15.71
2022-10-04T12:16:58.527Z,15.74
2022-10-04T12:18:00.906Z,15.79
2022-10-04T12:19:05.028Z,15.82
2022-10-04T12:20:11.346Z,15.88
2022-10-04T12:21:09.760Z,15.92
2022-10-04T12:22:12.167Z,15.99
2022-10-04T12:23:14.693Z,16.04
2022-10-04T12:24:17.163Z,16.08
2022-10-04T12:25:19.553Z,16.15
2022-10-04T12:26:21.929Z,16.18
2022-10-04T12:27:24.434Z,16.23
2022-10-04T12:28:26.910Z,16.24
2022-10-04T12:29:29.472Z,16.31
2022-10-04T12:30:31.920Z,16.33
2022-10-04T12:31:35.791Z,16.37
2022-10-04T12:32:38.211Z,16.41
2022-10-04T12:33:40.680Z,16.42
2022-10-04T12:34:43.066Z,16.45
2022-10-04T12:35:49.011Z,16.49
2022-10-04T12:36:51.179Z,16.51
2022-10-04T12:37:53.583Z,16.52
2022-10-04T12:38:55.979Z,16.48
2022-10-04T12:41:02.392Z,16.52
2022-10-04T12:42:04.757Z,16.55
2022-10-04T12:43:07.246Z,16.59
2022-10-04T12:44:09.635Z,16.61
2022-10-04T12:46:14.585Z,16.63
2022-10-04T12:47:16.891Z,16.65
2022-10-04T12:48:19.322Z,16.64
2022-10-04T12:49:21.692Z,16.66
2022-10-04T12:50:24.157Z,16.65
2022-10-04T12:51:26.441Z,16.66
2022-10-04T12:52:28.981Z,16.65
2022-10-04T12:54:33.920Z,16.66
2022-10-04T12:55:37.906Z,16.70
2022-10-04T12:56:40.171Z,16.71
2022-10-04T12:57:42.537Z,16.75
2022-10-04T12:58:45.043Z,16.79
2022-10-04T12:59:47.577Z,16.82
2022-10-04T13:01:52.453Z,16.84
2022-10-04T13:02:54.827Z,16.85
2022-10-04T13:03:57.391Z,16.86
2022-10-04T13:04:59.708Z,16.89
2022-10-04T13:06:02.100Z,16.9
2022-10-04T13:13:36.249Z,17.1
2022-10-04T13:27:48.563Z,17.24
2022-10-04T13:56:14.201Z,17.28
2022-10-04T14:10:26.026Z,17.42
2022-10-04T14:24:39.107Z,17.39
2022-10-04T14:38:56.208Z,19.09
2022-10-04T14:39:07.465Z,19.11
2022-10-04T14:40:10.004Z,19.08
2022-10-04T14:41:12.431Z,19.04
2022-10-04T14:42:14.908Z,19.06
2022-10-04T14:43:19.020Z,19.04
2022-10-04T14:45:23.894Z,19.09
2022-10-04T14:47:31.950Z,19.11
2022-10-04T14:49:39.637Z,19.15
2022-10-04T14:50:43.567Z,19.12
2022-10-04T14:51:46.196Z,19.22
2022-10-04T14:53:50.827Z,19.27
2022-10-04T14:54:53.390Z,19.36
2022-10-04T14:56:58.471Z,19.41
2022-10-04T14:58:00.930Z,19.48
2022-10-04T14:59:03.416Z,19.51
2022-10-04T15:00:05.949Z,19.62
2022-10-04T15:01:08.469Z,19.66
2022-10-04T15:02:10.873Z,19.77
2022-10-04T15:03:13.509Z,19.86
2022-10-04T15:04:15.976Z,19.89
2022-10-04T15:05:18.463Z,19.95
2022-10-04T15:06:20.928Z,19.99
2022-10-04T15:07:24.554Z,20.04
2022-10-04T15:08:26.958Z,20.15
2022-10-04T15:09:29.463Z,20.21
2022-10-04T15:10:37.151Z,20.23
2022-10-04T15:11:34.358Z,20.32
2022-10-04T15:13:05.681Z,20.38
2022-10-04T15:13:39.388Z,20.45
2022-10-04T15:14:41.939Z,20.54
2022-10-04T15:15:44.542Z,20.61
2022-10-04T15:16:47.386Z,20.73
2022-10-04T15:17:49.515Z,20.79
2022-10-04T15:18:52.080Z,20.87
2022-10-04T15:19:56.145Z,20.92
2022-10-04T15:20:58.559Z,20.93
2022-10-04T15:22:01.075Z,20.88
2022-10-04T15:23:05.201Z,20.96
2022-10-04T15:24:07.523Z,21.02
2022-10-04T15:25:11.694Z,21.06
2022-10-04T15:26:14.088Z,21.12
2022-10-04T15:28:19.033Z,21.10
2022-10-04T15:29:21.510Z,21.12
2022-10-04T15:30:25.642Z,21.15
2022-10-04T15:32:34.667Z,21.17
2022-10-04T15:33:33.064Z,21.16
2022-10-04T15:34:35.497Z,21.14
2022-10-04T15:35:39.586Z,21.17
2022-10-04T15:35:51.782Z,19.36
2022-10-04T15:50:02.106Z,18.41
2022-10-04T16:04:15.790Z,17.84
2022-10-04T16:18:23.267Z,17.2
2022-10-04T16:32:34.584Z,16.33
2022-10-04T16:46:46.197Z,15.39
2022-10-04T17:00:58.282Z,14.58
2022-10-04T17:15:05.462Z,13.86
2022-10-04T17:29:17.208Z,13.26
2022-10-04T17:43:28.995Z,12.87
2022-10-04T17:57:39.350Z,12.54
2022-10-04T18:11:51.401Z,12.14
2022-10-04T18:26:02.928Z,11.83
2022-10-04T18:40:14.754Z,11.62
2022-10-04T18:54:26.899Z,11.3
2022-10-04T19:08:39.243Z,11.11
2022-10-04T19:22:50.607Z,10.84
2022-10-04T19:37:02.971Z,10.56
2022-10-04T19:51:14.733Z,10.38
2022-10-04T20:05:25.421Z,10.5
2022-10-04T20:19:37.211Z,10.31
2022-10-04T20:33:49.146Z,9.98
2022-10-04T20:48:01.572Z,9.77
2022-10-04T21:02:13.482Z,9.69
2022-10-04T21:16:26.493Z,9.79
2022-10-04T21:30:38.695Z,9.8
2022-10-04T21:44:50.305Z,9.84
2022-10-04T21:59:02.721Z,9.72
2022-10-04T22:13:16.516Z,9.48
2022-10-04T22:27:24.223Z,9.23
2022-10-04T22:41:36.219Z,9.18
2022-10-04T22:55:47.887Z,9.09
2022-10-04T23:10:01.822Z,8.78
2022-10-04T23:24:10.284Z,8.52
2022-10-04T23:38:21.448Z,8.23
2022-10-04T23:52:33.352Z,7.95
